Portada
METAR-TAF:

METAR-TAF

Aeroports :

Moscou, Rússia

latitud: 55-30-42N, longitud: 037-30-26E, altitud: 173 m

Observació

L'informe es va fer fa 43 minuts, a les 16:00 UTC
Vent 6 kt del Sud/Sud-Oest
Temperatura 3°C
Humitat 100%
Pressió 1013 hPa
Visibilitat: 2300 m
Cel cobert a una alçada de 200 ft
plugim, boirina

METAR: UUMO 101600Z 21003MPS 2300 -DZ BR OVC002 03/03 Q1013 R26/290250 NOSIG RMK QBB060 QFE745/0993

Hora: 19:43 (16:43 UTC)

Pronòstic

L'informe es va fer fa 2 hores i 56 minuts, a les 13:47 UTC
Pronòstic vàlid del 10 a les 15 UTC al 10 a les 24 UTC
Vent 8 kt del Sud/Sud-Oest
Visibilitat: 3000 m
Cel cobert a una alçada de 300 ft
plugim, boirina
Temporalment
l' 10 a les 18 UTC al 10 a les 24 UTC
Visibilitat: 0500 m
a una alçada de 200 ft
boira

TAF: UUMO 101347Z 1015/1024 20004MPS 3000 -DZ BR OVC003 TEMPO 1018/1024 0500 FG VV002

Observacions i pronòstics meteorològics de més de 4000 aeroports (METAR i TAF).

Les estacions disponibles són els punts grocs i vermells al mapa.

Posi el ratolí al punt desitjat per veure el nom de l'estació.

Feu clic per veure les observacions i els pronòstics meteorològics.

Per canviar el mapa: feu clic els botons verds amb una creu de color negre per apropar; al botó verd amb un guió per allunyar la imatge; o en les fletxes verdes per a mapes adjacents.


METAR-TAF: